sensor_id;sensor_type;location;lat;lon;timestamp;P1;durP1;ratioP1;P2;durP2;ratioP2
4428;SDS011;2227;47.810;8.810;2023-05-02T03:47:25;871.35;;;797.65;;
4428;SDS011;2227;47.810;8.810;2023-05-02T03:49:52;868.05;;;794.40;;
4428;SDS011;2227;47.810;8.810;2023-05-02T03:52:19;878.85;;;804.72;;
4428;SDS011;2227;47.810;8.810;2023-05-02T03:54:45;874.90;;;800.70;;
4428;SDS011;2227;47.810;8.810;2023-05-02T03:57:12;879.13;;;804.63;;
4428;SDS011;2227;47.810;8.810;2023-05-02T03:59:39;872.90;;;798.85;;
4428;SDS011;2227;47.810;8.810;2023-05-02T04:02:08;873.63;;;799.28;;
4428;SDS011;2227;47.810;8.810;2023-05-02T04:04:34;876.72;;;802.33;;
4428;SDS011;2227;47.810;8.810;2023-05-02T04:07:02;869.40;;;795.50;;
4428;SDS011;2227;47.810;8.810;2023-05-02T04:09:29;880.38;;;806.08;;
4428;SDS011;2227;47.810;8.810;2023-05-02T04:11:55;871.83;;;797.67;;
4428;SDS011;2227;47.810;8.810;2023-05-02T04:14:22;866.83;;;793.33;;
4428;SDS011;2227;47.810;8.810;2023-05-02T04:16:49;867.95;;;794.55;;
4428;SDS011;2227;47.810;8.810;2023-05-02T04:19:17;869.55;;;795.65;;
4428;SDS011;2227;47.810;8.810;2023-05-02T04:21:44;875.88;;;802.03;;
4428;SDS011;2227;47.810;8.810;2023-05-02T04:24:12;872.83;;;798.95;;
4428;SDS011;2227;47.810;8.810;2023-05-02T04:26:39;872.35;;;798.45;;
4428;SDS011;2227;47.810;8.810;2023-05-02T04:29:06;871.75;;;798.05;;
4428;SDS011;2227;47.810;8.810;2023-05-02T04:31:33;879.42;;;805.08;;
4428;SDS011;2227;47.810;8.810;2023-05-02T04:34:00;871.80;;;797.83;;
4428;SDS011;2227;47.810;8.810;2023-05-02T04:36:29;871.92;;;797.92;;
4428;SDS011;2227;47.810;8.810;2023-05-02T04:38:56;872.13;;;798.13;;
4428;SDS011;2227;47.810;8.810;2023-05-02T04:41:23;873.90;;;799.40;;
4428;SDS011;2227;47.810;8.810;2023-05-02T04:43:50;868.25;;;794.22;;
4428;SDS011;2227;47.810;8.810;2023-05-02T04:46:17;864.45;;;790.35;;
4428;SDS011;2227;47.810;8.810;2023-05-02T04:48:43;860.70;;;786.15;;
4428;SDS011;2227;47.810;8.810;2023-05-02T04:51:10;861.70;;;786.95;;
4428;SDS011;2227;47.810;8.810;2023-05-02T04:53:40;857.03;;;782.70;;
4428;SDS011;2227;47.810;8.810;2023-05-02T04:56:07;860.80;;;786.40;;
4428;SDS011;2227;47.810;8.810;2023-05-02T04:58:34;858.63;;;784.03;;
4428;SDS011;2227;47.810;8.810;2023-05-02T05:01:01;865.17;;;790.28;;
4428;SDS011;2227;47.810;8.810;2023-05-02T05:03:28;860.47;;;786.03;;
4428;SDS011;2227;47.810;8.810;2023-05-02T05:05:58;861.25;;;786.72;;
4428;SDS011;2227;47.810;8.810;2023-05-02T05:08:25;862.47;;;788.05;;
4428;SDS011;2227;47.810;8.810;2023-05-02T05:10:52;861.83;;;787.33;;
4428;SDS011;2227;47.810;8.810;2023-05-02T05:13:19;859.80;;;785.60;;
4428;SDS011;2227;47.810;8.810;2023-05-02T05:15:46;864.47;;;790.22;;
4428;SDS011;2227;47.810;8.810;2023-05-02T05:18:13;865.25;;;790.85;;
4428;SDS011;2227;47.810;8.810;2023-05-02T05:20:39;867.47;;;793.08;;
4428;SDS011;2227;47.810;8.810;2023-05-02T05:23:06;871.15;;;796.60;;
4428;SDS011;2227;47.810;8.810;2023-05-02T05:25:33;871.50;;;796.85;;
4428;SDS011;2227;47.810;8.810;2023-05-02T05:28:00;865.45;;;791.08;;
4428;SDS011;2227;47.810;8.810;2023-05-02T05:30:26;879.22;;;804.50;;
4428;SDS011;2227;47.810;8.810;2023-05-02T05:32:55;871.67;;;796.92;;
4428;SDS011;2227;47.810;8.810;2023-05-02T05:35:24;868.85;;;794.28;;
4428;SDS011;2227;47.810;8.810;2023-05-02T05:37:51;882.20;;;807.38;;
4428;SDS011;2227;47.810;8.810;2023-05-02T05:40:18;869.33;;;794.73;;
4428;SDS011;2227;47.810;8.810;2023-05-02T05:42:46;875.63;;;800.75;;
4428;SDS011;2227;47.810;8.810;2023-05-02T05:45:13;871.03;;;796.42;;
4428;SDS011;2227;47.810;8.810;2023-05-02T05:47:42;876.83;;;802.22;;
4428;SDS011;2227;47.810;8.810;2023-05-02T05:50:09;884.72;;;809.92;;
4428;SDS011;2227;47.810;8.810;2023-05-02T05:52:36;876.80;;;802.03;;
4428;SDS011;2227;47.810;8.810;2023-05-02T05:55:02;883.15;;;808.30;;
4428;SDS011;2227;47.810;8.810;2023-05-02T05:57:30;880.78;;;806.10;;
4428;SDS011;2227;47.810;8.810;2023-05-02T05:59:57;879.15;;;804.85;;
4428;SDS011;2227;47.810;8.810;2023-05-02T06:02:24;877.53;;;803.00;;
4428;SDS011;2227;47.810;8.810;2023-05-02T06:04:51;887.10;;;812.15;;
4428;SDS011;2227;47.810;8.810;2023-05-02T06:07:18;896.00;;;820.47;;
4428;SDS011;2227;47.810;8.810;2023-05-02T06:09:45;886.53;;;811.42;;
4428;SDS011;2227;47.810;8.810;2023-05-02T06:12:11;893.50;;;818.15;;
4428;SDS011;2227;47.810;8.810;2023-05-02T06:14:38;890.03;;;814.72;;
4428;SDS011;2227;47.810;8.810;2023-05-02T06:17:05;888.70;;;813.40;;
4428;SDS011;2227;47.810;8.810;2023-05-02T06:19:31;889.58;;;814.25;;
4428;SDS011;2227;47.810;8.810;2023-05-02T06:21:58;890.97;;;815.53;;
4428;SDS011;2227;47.810;8.810;2023-05-02T06:24:25;905.30;;;829.25;;
4428;SDS011;2227;47.810;8.810;2023-05-02T06:26:52;901.70;;;826.17;;
4428;SDS011;2227;47.810;8.810;2023-05-02T06:29:19;906.63;;;830.72;;
4428;SDS011;2227;47.810;8.810;2023-05-02T06:31:45;898.53;;;823.17;;
4428;SDS011;2227;47.810;8.810;2023-05-02T06:34:12;913.15;;;837.75;;
4428;SDS011;2227;47.810;8.810;2023-05-02T06:36:39;904.80;;;829.58;;
4428;SDS011;2227;47.810;8.810;2023-05-02T06:39:06;916.60;;;840.47;;
4428;SDS011;2227;47.810;8.810;2023-05-02T06:41:32;916.85;;;840.90;;
4428;SDS011;2227;47.810;8.810;2023-05-02T06:43:59;913.13;;;837.17;;
4428;SDS011;2227;47.810;8.810;2023-05-02T06:46:29;910.63;;;834.88;;
4428;SDS011;2227;47.810;8.810;2023-05-02T06:48:57;908.10;;;832.33;;
4428;SDS011;2227;47.810;8.810;2023-05-02T06:51:23;909.35;;;833.75;;
4428;SDS011;2227;47.810;8.810;2023-05-02T06:53:51;909.92;;;834.53;;
4428;SDS011;2227;47.810;8.810;2023-05-02T06:56:17;922.35;;;846.67;;
4428;SDS011;2227;47.810;8.810;2023-05-02T06:58:44;920.33;;;844.83;;
4428;SDS011;2227;47.810;8.810;2023-05-02T07:01:11;920.70;;;845.40;;
4428;SDS011;2227;47.810;8.810;2023-05-02T07:03:38;930.83;;;855.42;;
4428;SDS011;2227;47.810;8.810;2023-05-02T07:06:05;938.25;;;863.20;;
4428;SDS011;2227;47.810;8.810;2023-05-02T07:08:31;935.53;;;860.38;;
4428;SDS011;2227;47.810;8.810;2023-05-02T07:10:58;947.03;;;871.83;;
4428;SDS011;2227;47.810;8.810;2023-05-02T07:13:25;956.60;;;881.07;;
4428;SDS011;2227;47.810;8.810;2023-05-02T07:15:52;951.10;;;875.75;;
4428;SDS011;2227;47.810;8.810;2023-05-02T07:18:19;949.53;;;874.30;;
4428;SDS011;2227;47.810;8.810;2023-05-02T07:20:46;947.90;;;872.63;;
4428;SDS011;2227;47.810;8.810;2023-05-02T07:23:13;944.83;;;869.65;;
4428;SDS011;2227;47.810;8.810;2023-05-02T07:25:40;946.65;;;871.53;;
4428;SDS011;2227;47.810;8.810;2023-05-02T07:28:06;951.67;;;876.70;;
4428;SDS011;2227;47.810;8.810;2023-05-02T07:30:33;950.17;;;875.60;;
4428;SDS011;2227;47.810;8.810;2023-05-02T07:33:00;952.83;;;878.30;;
4428;SDS011;2227;47.810;8.810;2023-05-02T07:35:27;956.40;;;882.10;;
4428;SDS011;2227;47.810;8.810;2023-05-02T07:37:54;954.47;;;880.42;;
4428;SDS011;2227;47.810;8.810;2023-05-02T07:40:20;955.85;;;881.80;;
4428;SDS011;2227;47.810;8.810;2023-05-02T07:42:47;959.22;;;885.13;;
4428;SDS011;2227;47.810;8.810;2023-05-02T07:45:15;961.58;;;887.50;;
4428;SDS011;2227;47.810;8.810;2023-05-02T07:47:42;968.20;;;893.90;;
4428;SDS011;2227;47.810;8.810;2023-05-02T07:50:10;962.17;;;887.97;;
4428;SDS011;2227;47.810;8.810;2023-05-02T07:52:37;954.55;;;880.42;;
4428;SDS011;2227;47.810;8.810;2023-05-02T07:55:04;954.22;;;880.13;;
4428;SDS011;2227;47.810;8.810;2023-05-02T07:57:31;948.83;;;874.65;;
4428;SDS011;2227;47.810;8.810;2023-05-02T07:59:57;956.47;;;882.03;;
4428;SDS011;2227;47.810;8.810;2023-05-02T08:02:25;953.38;;;879.28;;
4428;SDS011;2227;47.810;8.810;2023-05-02T08:04:52;956.70;;;882.88;;
4428;SDS011;2227;47.810;8.810;2023-05-02T08:07:19;955.30;;;881.47;;
4428;SDS011;2227;47.810;8.810;2023-05-02T08:09:47;957.20;;;883.60;;
4428;SDS011;2227;47.810;8.810;2023-05-02T08:12:13;970.03;;;896.08;;
4428;SDS011;2227;47.810;8.810;2023-05-02T08:14:40;980.55;;;905.97;;
4428;SDS011;2227;47.810;8.810;2023-05-02T08:17:07;979.65;;;905.50;;
4428;SDS011;2227;47.810;8.810;2023-05-02T08:19:33;983.35;;;908.88;;
4428;SDS011;2227;47.810;8.810;2023-05-02T08:22:00;993.85;;;918.85;;
4428;SDS011;2227;47.810;8.810;2023-05-02T08:24:27;992.38;;;917.67;;
4428;SDS011;2227;47.810;8.810;2023-05-02T08:26:54;991.83;;;917.13;;
4428;SDS011;2227;47.810;8.810;2023-05-02T08:29:22;990.10;;;915.42;;
4428;SDS011;2227;47.810;8.810;2023-05-02T08:31:49;988.83;;;914.63;;
4428;SDS011;2227;47.810;8.810;2023-05-02T08:34:16;998.25;;;923.90;;
4428;SDS011;2227;47.810;8.810;2023-05-02T08:36:42;992.25;;;918.17;;
4428;SDS011;2227;47.810;8.810;2023-05-02T08:39:09;998.53;;;924.15;;
4428;SDS011;2227;47.810;8.810;2023-05-02T08:41:36;993.75;;;919.47;;
4428;SDS011;2227;47.810;8.810;2023-05-02T08:44:04;990.58;;;916.55;;
4428;SDS011;2227;47.810;8.810;2023-05-02T08:46:34;989.70;;;915.90;;
4428;SDS011;2227;47.810;8.810;2023-05-02T08:49:02;993.03;;;919.10;;
4428;SDS011;2227;47.810;8.810;2023-05-02T08:51:29;996.90;;;922.40;;
4428;SDS011;2227;47.810;8.810;2023-05-02T08:53:57;987.47;;;913.00;;
4428;SDS011;2227;47.810;8.810;2023-05-02T08:56:27;991.28;;;917.33;;
4428;SDS011;2227;47.810;8.810;2023-05-02T08:58:53;990.35;;;916.10;;
4428;SDS011;2227;47.810;8.810;2023-05-02T09:01:22;993.47;;;919.22;;
4428;SDS011;2227;47.810;8.810;2023-05-02T09:03:49;990.08;;;915.88;;
4428;SDS011;2227;47.810;8.810;2023-05-02T09:06:18;992.22;;;918.22;;
4428;SDS011;2227;47.810;8.810;2023-05-02T09:08:48;993.75;;;919.90;;
4428;SDS011;2227;47.810;8.810;2023-05-02T09:11:18;1003.72;;;929.83;;
4428;SDS011;2227;47.810;8.810;2023-05-02T09:13:47;1006.63;;;932.77;;
4428;SDS011;2227;47.810;8.810;2023-05-02T09:16:15;1033.10;;;959.47;;
4428;SDS011;2227;47.810;8.810;2023-05-02T09:18:45;1066.40;;;992.15;;
4428;SDS011;2227;47.810;8.810;2023-05-02T09:21:24;1092.40;;;999.90;;
4428;SDS011;2227;47.810;8.810;2023-05-02T09:23:53;1115.32;;;999.90;;
4428;SDS011;2227;47.810;8.810;2023-05-02T09:26:22;1127.33;;;999.90;;
4428;SDS011;2227;47.810;8.810;2023-05-02T09:28:56;1152.57;;;999.90;;
4428;SDS011;2227;47.810;8.810;2023-05-02T09:31:24;1154.97;;;999.90;;
4428;SDS011;2227;47.810;8.810;2023-05-02T09:34:14;1163.50;;;999.90;;
4428;SDS011;2227;47.810;8.810;2023-05-02T09:36:43;1163.90;;;999.90;;
4428;SDS011;2227;47.810;8.810;2023-05-02T09:39:15;1172.32;;;999.90;;
4428;SDS011;2227;47.810;8.810;2023-05-02T09:41:43;1182.80;;;999.90;;
4428;SDS011;2227;47.810;8.810;2023-05-02T09:44:19;1181.18;;;999.90;;
4428;SDS011;2227;47.810;8.810;2023-05-02T09:46:54;1181.43;;;999.90;;
4428;SDS011;2227;47.810;8.810;2023-05-02T09:49:42;1182.07;;;999.90;;
4428;SDS011;2227;47.810;8.810;2023-05-02T09:54:38;1176.03;;;999.90;;
4428;SDS011;2227;47.810;8.810;2023-05-02T09:57:04;1178.50;;;999.90;;
4428;SDS011;2227;47.810;8.810;2023-05-02T09:59:32;1176.70;;;999.90;;
4428;SDS011;2227;47.810;8.810;2023-05-02T10:02:00;1168.78;;;999.90;;
4428;SDS011;2227;47.810;8.810;2023-05-02T10:04:29;1160.50;;;999.90;;
4428;SDS011;2227;47.810;8.810;2023-05-02T10:06:57;1156.82;;;999.90;;
4428;SDS011;2227;47.810;8.810;2023-05-02T10:09:25;1144.15;;;999.90;;
4428;SDS011;2227;47.810;8.810;2023-05-02T10:11:53;1142.60;;;999.90;;
4428;SDS011;2227;47.810;8.810;2023-05-02T10:19:37;1114.28;;;999.90;;
4428;SDS011;2227;47.810;8.810;2023-05-02T10:22:18;1109.43;;;999.90;;
4428;SDS011;2227;47.810;8.810;2023-05-02T10:24:48;1105.28;;;999.90;;
4428;SDS011;2227;47.810;8.810;2023-05-02T10:27:15;1111.93;;;999.90;;
4428;SDS011;2227;47.810;8.810;2023-05-02T10:29:42;1116.43;;;999.90;;
4428;SDS011;2227;47.810;8.810;2023-05-02T10:32:10;1133.57;;;999.90;;
4428;SDS011;2227;47.810;8.810;2023-05-02T10:34:38;1143.93;;;999.90;;
4428;SDS011;2227;47.810;8.810;2023-05-02T10:37:06;1144.30;;;999.90;;
4428;SDS011;2227;47.810;8.810;2023-05-02T10:39:33;1131.97;;;999.90;;
4428;SDS011;2227;47.810;8.810;2023-05-02T10:42:00;1128.68;;;999.90;;
4428;SDS011;2227;47.810;8.810;2023-05-02T10:46:59;1129.65;;;999.90;;
4428;SDS011;2227;47.810;8.810;2023-05-02T10:49:26;1122.47;;;999.90;;
4428;SDS011;2227;47.810;8.810;2023-05-02T10:51:54;1126.88;;;999.90;;
4428;SDS011;2227;47.810;8.810;2023-05-02T10:54:22;1116.07;;;999.90;;
4428;SDS011;2227;47.810;8.810;2023-05-02T10:57:07;1110.47;;;999.90;;
4428;SDS011;2227;47.810;8.810;2023-05-02T10:59:35;1104.22;;;999.90;;
4428;SDS011;2227;47.810;8.810;2023-05-02T11:05:11;1074.63;;;999.90;;
4428;SDS011;2227;47.810;8.810;2023-05-02T11:07:38;1072.13;;;997.42;;
4428;SDS011;2227;47.810;8.810;2023-05-02T11:15:14;1044.30;;;968.90;;
4428;SDS011;2227;47.810;8.810;2023-05-02T11:18:08;1035.17;;;960.20;;
4428;SDS011;2227;47.810;8.810;2023-05-02T11:20:40;1029.97;;;955.60;;
4428;SDS011;2227;47.810;8.810;2023-05-02T11:25:41;1052.35;;;977.35;;
4428;SDS011;2227;47.810;8.810;2023-05-02T11:31:05;1041.15;;;966.80;;
4428;SDS011;2227;47.810;8.810;2023-05-02T11:33:32;1040.50;;;966.70;;
4428;SDS011;2227;47.810;8.810;2023-05-02T11:35:59;1045.35;;;971.35;;
4428;SDS011;2227;47.810;8.810;2023-05-02T11:38:33;1039.65;;;966.10;;
4428;SDS011;2227;47.810;8.810;2023-05-02T11:41:04;1041.35;;;966.70;;
4428;SDS011;2227;47.810;8.810;2023-05-02T11:43:31;1034.78;;;959.83;;
4428;SDS011;2227;47.810;8.810;2023-05-02T11:45:58;1029.70;;;954.78;;
4428;SDS011;2227;47.810;8.810;2023-05-02T11:48:27;1036.78;;;961.15;;
4428;SDS011;2227;47.810;8.810;2023-05-02T11:50:56;1017.53;;;942.13;;
4428;SDS011;2227;47.810;8.810;2023-05-02T11:53:27;1013.77;;;938.83;;
4428;SDS011;2227;47.810;8.810;2023-05-02T11:55:55;1013.13;;;937.33;;
4428;SDS011;2227;47.810;8.810;2023-05-02T11:58:24;1014.42;;;937.83;;
4428;SDS011;2227;47.810;8.810;2023-05-02T12:00:55;1007.67;;;932.13;;
4428;SDS011;2227;47.810;8.810;2023-05-02T12:03:26;1007.75;;;931.72;;
4428;SDS011;2227;47.810;8.810;2023-05-02T12:06:07;1000.33;;;924.95;;
4428;SDS011;2227;47.810;8.810;2023-05-02T12:08:39;1000.13;;;924.22;;
4428;SDS011;2227;47.810;8.810;2023-05-02T12:11:08;1005.85;;;930.25;;
4428;SDS011;2227;47.810;8.810;2023-05-02T12:13:34;998.10;;;922.72;;
4428;SDS011;2227;47.810;8.810;2023-05-02T12:16:15;999.05;;;924.05;;
4428;SDS011;2227;47.810;8.810;2023-05-02T12:18:42;1005.70;;;930.50;;
4428;SDS011;2227;47.810;8.810;2023-05-02T12:21:10;1007.45;;;932.15;;
4428;SDS011;2227;47.810;8.810;2023-05-02T12:23:38;1005.40;;;930.67;;
4428;SDS011;2227;47.810;8.810;2023-05-02T12:26:21;1006.88;;;932.47;;
4428;SDS011;2227;47.810;8.810;2023-05-02T12:28:57;1013.53;;;938.92;;
4428;SDS011;2227;47.810;8.810;2023-05-02T12:31:24;1006.10;;;931.95;;
4428;SDS011;2227;47.810;8.810;2023-05-02T12:33:53;1013.15;;;938.05;;
4428;SDS011;2227;47.810;8.810;2023-05-02T12:36:22;1012.67;;;937.78;;
4428;SDS011;2227;47.810;8.810;2023-05-02T12:38:53;1021.15;;;946.88;;
4428;SDS011;2227;47.810;8.810;2023-05-02T12:41:31;1031.47;;;957.17;;
4428;SDS011;2227;47.810;8.810;2023-05-02T12:44:08;1044.53;;;970.40;;
4428;SDS011;2227;47.810;8.810;2023-05-02T12:46:35;1051.47;;;976.85;;
4428;SDS011;2227;47.810;8.810;2023-05-02T12:51:30;1049.18;;;975.47;;
4428;SDS011;2227;47.810;8.810;2023-05-02T12:53:58;1061.10;;;987.47;;
4428;SDS011;2227;47.810;8.810;2023-05-02T12:56:24;1064.82;;;990.70;;
4428;SDS011;2227;47.810;8.810;2023-05-02T12:58:57;1070.43;;;995.78;;
4428;SDS011;2227;47.810;8.810;2023-05-02T13:01:31;1068.72;;;994.45;;
4428;SDS011;2227;47.810;8.810;2023-05-02T13:03:59;1072.32;;;997.83;;
4428;SDS011;2227;47.810;8.810;2023-05-02T13:06:26;1069.55;;;995.55;;
4428;SDS011;2227;47.810;8.810;2023-05-02T13:08:52;1073.65;;;999.63;;
4428;SDS011;2227;47.810;8.810;2023-05-02T13:11:19;1064.97;;;992.17;;
4428;SDS011;2227;47.810;8.810;2023-05-02T13:13:46;1069.03;;;996.00;;
4428;SDS011;2227;47.810;8.810;2023-05-02T13:16:12;1067.18;;;994.28;;
4428;SDS011;2227;47.810;8.810;2023-05-02T13:18:39;1071.60;;;998.80;;
4428;SDS011;2227;47.810;8.810;2023-05-02T13:21:06;1068.00;;;996.10;;
4428;SDS011;2227;47.810;8.810;2023-05-02T13:23:33;1072.50;;;999.58;;
4428;SDS011;2227;47.810;8.810;2023-05-02T13:25:59;1078.97;;;999.90;;
4428;SDS011;2227;47.810;8.810;2023-05-02T13:28:26;1087.68;;;999.90;;
4428;SDS011;2227;47.810;8.810;2023-05-02T13:30:55;1100.68;;;999.90;;
4428;SDS011;2227;47.810;8.810;2023-05-02T13:33:22;1100.78;;;999.90;;
4428;SDS011;2227;47.810;8.810;2023-05-02T13:35:48;1105.47;;;999.90;;
4428;SDS011;2227;47.810;8.810;2023-05-02T13:38:15;1095.00;;;999.90;;
4428;SDS011;2227;47.810;8.810;2023-05-02T13:40:42;1088.53;;;999.90;;
4428;SDS011;2227;47.810;8.810;2023-05-02T13:43:08;1085.45;;;999.90;;
4428;SDS011;2227;47.810;8.810;2023-05-02T13:45:35;1086.72;;;999.90;;
4428;SDS011;2227;47.810;8.810;2023-05-02T13:48:02;1081.72;;;999.90;;
4428;SDS011;2227;47.810;8.810;2023-05-02T13:50:29;1092.28;;;999.90;;
4428;SDS011;2227;47.810;8.810;2023-05-02T13:52:55;1092.00;;;999.90;;
4428;SDS011;2227;47.810;8.810;2023-05-02T13:55:22;1100.15;;;999.90;;
4428;SDS011;2227;47.810;8.810;2023-05-02T13:57:49;1092.88;;;999.90;;
4428;SDS011;2227;47.810;8.810;2023-05-02T14:00:16;1097.90;;;999.90;;
4428;SDS011;2227;47.810;8.810;2023-05-02T14:02:42;1098.80;;;999.90;;
4428;SDS011;2227;47.810;8.810;2023-05-02T14:05:11;1089.18;;;999.90;;
4428;SDS011;2227;47.810;8.810;2023-05-02T14:07:38;1085.75;;;999.90;;
4428;SDS011;2227;47.810;8.810;2023-05-02T14:10:05;1085.70;;;999.90;;
4428;SDS011;2227;47.810;8.810;2023-05-02T14:12:32;1070.82;;;997.40;;
4428;SDS011;2227;47.810;8.810;2023-05-02T14:14:59;1064.88;;;992.78;;
4428;SDS011;2227;47.810;8.810;2023-05-02T14:17:26;1069.25;;;997.15;;
4428;SDS011;2227;47.810;8.810;2023-05-02T14:19:53;1069.95;;;997.42;;
4428;SDS011;2227;47.810;8.810;2023-05-02T14:22:19;1067.65;;;995.50;;
4428;SDS011;2227;47.810;8.810;2023-05-02T14:24:46;1065.75;;;993.55;;
4428;SDS011;2227;47.810;8.810;2023-05-02T14:27:13;1068.67;;;996.07;;
4428;SDS011;2227;47.810;8.810;2023-05-02T14:29:46;1063.35;;;991.25;;
4428;SDS011;2227;47.810;8.810;2023-05-02T14:32:13;1073.68;;;999.90;;
4428;SDS011;2227;47.810;8.810;2023-05-02T14:34:40;1080.07;;;999.90;;
4428;SDS011;2227;47.810;8.810;2023-05-02T14:37:07;1081.32;;;999.90;;
4428;SDS011;2227;47.810;8.810;2023-05-02T14:39:34;1104.50;;;999.90;;
4428;SDS011;2227;47.810;8.810;2023-05-02T14:42:02;1105.68;;;999.90;;
4428;SDS011;2227;47.810;8.810;2023-05-02T14:44:29;1081.28;;;999.90;;
4428;SDS011;2227;47.810;8.810;2023-05-02T14:46:56;1075.68;;;999.90;;
4428;SDS011;2227;47.810;8.810;2023-05-02T14:49:23;1076.70;;;999.90;;
4428;SDS011;2227;47.810;8.810;2023-05-02T14:51:50;1082.15;;;999.90;;
4428;SDS011;2227;47.810;8.810;2023-05-02T14:54:17;1080.33;;;999.90;;
4428;SDS011;2227;47.810;8.810;2023-05-02T14:56:45;1082.65;;;999.90;;
4428;SDS011;2227;47.810;8.810;2023-05-02T14:59:13;1082.95;;;999.90;;
4428;SDS011;2227;47.810;8.810;2023-05-02T15:01:40;1081.25;;;999.90;;
4428;SDS011;2227;47.810;8.810;2023-05-02T15:04:06;1075.80;;;999.90;;
4428;SDS011;2227;47.810;8.810;2023-05-02T15:06:34;1070.50;;;998.65;;
4428;SDS011;2227;47.810;8.810;2023-05-02T15:09:02;1062.22;;;990.72;;
4428;SDS011;2227;47.810;8.810;2023-05-02T15:11:30;1056.53;;;985.13;;
4428;SDS011;2227;47.810;8.810;2023-05-02T15:13:56;1057.47;;;985.47;;
4428;SDS011;2227;47.810;8.810;2023-05-02T15:16:24;1059.43;;;986.88;;
4428;SDS011;2227;47.810;8.810;2023-05-02T15:18:54;1059.93;;;987.63;;
4428;SDS011;2227;47.810;8.810;2023-05-02T15:21:21;1059.32;;;986.92;;
4428;SDS011;2227;47.810;8.810;2023-05-02T15:23:48;1047.72;;;975.08;;
4428;SDS011;2227;47.810;8.810;2023-05-02T15:26:14;1049.65;;;976.75;;
4428;SDS011;2227;47.810;8.810;2023-05-02T15:28:41;1047.57;;;974.67;;
4428;SDS011;2227;47.810;8.810;2023-05-02T15:31:08;1040.80;;;967.92;;
4428;SDS011;2227;47.810;8.810;2023-05-02T15:33:36;1044.70;;;972.08;;
4428;SDS011;2227;47.810;8.810;2023-05-02T15:36:02;1037.53;;;965.43;;
4428;SDS011;2227;47.810;8.810;2023-05-02T15:38:29;1042.57;;;970.20;;
4428;SDS011;2227;47.810;8.810;2023-05-02T15:40:56;1045.80;;;973.63;;
4428;SDS011;2227;47.810;8.810;2023-05-02T15:43:25;1048.07;;;976.25;;
4428;SDS011;2227;47.810;8.810;2023-05-02T15:45:52;1051.30;;;979.17;;
4428;SDS011;2227;47.810;8.810;2023-05-02T15:48:20;1050.20;;;978.45;;
4428;SDS011;2227;47.810;8.810;2023-05-02T15:50:47;1053.70;;;982.15;;
4428;SDS011;2227;47.810;8.810;2023-05-02T15:53:15;1055.38;;;983.97;;
4428;SDS011;2227;47.810;8.810;2023-05-02T15:55:42;1058.37;;;987.03;;
4428;SDS011;2227;47.810;8.810;2023-05-02T15:58:11;1064.32;;;992.65;;
4428;SDS011;2227;47.810;8.810;2023-05-02T16:00:38;1068.07;;;996.13;;
4428;SDS011;2227;47.810;8.810;2023-05-02T16:03:05;1076.10;;;999.90;;
4428;SDS011;2227;47.810;8.810;2023-05-02T16:05:31;1075.88;;;999.90;;
4428;SDS011;2227;47.810;8.810;2023-05-02T16:07:58;1079.53;;;999.90;;
4428;SDS011;2227;47.810;8.810;2023-05-02T16:10:25;1090.00;;;999.90;;
4428;SDS011;2227;47.810;8.810;2023-05-02T16:12:53;1101.57;;;999.90;;
4428;SDS011;2227;47.810;8.810;2023-05-02T16:15:20;1100.63;;;999.90;;
4428;SDS011;2227;47.810;8.810;2023-05-02T16:17:47;1094.43;;;999.90;;
4428;SDS011;2227;47.810;8.810;2023-05-02T16:20:16;1078.18;;;999.90;;
4428;SDS011;2227;47.810;8.810;2023-05-02T16:22:43;1072.82;;;999.85;;
4428;SDS011;2227;47.810;8.810;2023-05-02T16:25:14;1064.32;;;991.67;;
4428;SDS011;2227;47.810;8.810;2023-05-02T16:27:42;1056.18;;;981.92;;
4428;SDS011;2227;47.810;8.810;2023-05-02T16:30:09;1032.00;;;957.03;;
4428;SDS011;2227;47.810;8.810;2023-05-02T16:32:36;1019.03;;;943.33;;
4428;SDS011;2227;47.810;8.810;2023-05-02T16:35:03;1001.80;;;925.60;;
4428;SDS011;2227;47.810;8.810;2023-05-02T16:37:32;979.40;;;903.78;;
4428;SDS011;2227;47.810;8.810;2023-05-02T16:40:00;975.70;;;900.50;;
4428;SDS011;2227;47.810;8.810;2023-05-02T16:42:28;984.20;;;908.20;;
4428;SDS011;2227;47.810;8.810;2023-05-02T16:44:55;983.33;;;908.22;;
4428;SDS011;2227;47.810;8.810;2023-05-02T16:47:22;989.50;;;914.50;;
4428;SDS011;2227;47.810;8.810;2023-05-02T16:49:56;990.80;;;915.67;;
4428;SDS011;2227;47.810;8.810;2023-05-02T16:52:24;997.58;;;922.75;;
4428;SDS011;2227;47.810;8.810;2023-05-02T16:54:51;1002.85;;;928.38;;
4428;SDS011;2227;47.810;8.810;2023-05-02T16:57:18;1004.17;;;930.58;;
4428;SDS011;2227;47.810;8.810;2023-05-02T16:59:49;1005.10;;;931.50;;
4428;SDS011;2227;47.810;8.810;2023-05-02T17:02:17;1014.42;;;941.00;;
4428;SDS011;2227;47.810;8.810;2023-05-02T17:04:46;1016.38;;;943.38;;
4428;SDS011;2227;47.810;8.810;2023-05-02T17:07:13;1022.60;;;949.00;;
4428;SDS011;2227;47.810;8.810;2023-05-02T17:09:40;1022.92;;;949.33;;
4428;SDS011;2227;47.810;8.810;2023-05-02T17:12:07;1020.08;;;946.17;;
4428;SDS011;2227;47.810;8.810;2023-05-02T17:14:38;1019.70;;;945.30;;
4428;SDS011;2227;47.810;8.810;2023-05-02T17:17:07;1008.58;;;934.47;;
4428;SDS011;2227;47.810;8.810;2023-05-02T17:19:35;1003.63;;;929.30;;
4428;SDS011;2227;47.810;8.810;2023-05-02T17:22:02;997.67;;;922.88;;
4428;SDS011;2227;47.810;8.810;2023-05-02T17:24:30;994.60;;;919.35;;
4428;SDS011;2227;47.810;8.810;2023-05-02T17:26:57;982.33;;;907.03;;
4428;SDS011;2227;47.810;8.810;2023-05-02T17:29:24;964.57;;;889.47;;
4428;SDS011;2227;47.810;8.810;2023-05-02T17:31:51;965.67;;;890.40;;
4428;SDS011;2227;47.810;8.810;2023-05-02T17:34:17;963.72;;;888.92;;
4428;SDS011;2227;47.810;8.810;2023-05-02T17:36:44;958.30;;;883.47;;
4428;SDS011;2227;47.810;8.810;2023-05-02T17:39:11;951.95;;;877.65;;
4428;SDS011;2227;47.810;8.810;2023-05-02T17:41:38;956.58;;;882.50;;
4428;SDS011;2227;47.810;8.810;2023-05-02T17:44:05;959.35;;;885.25;;
4428;SDS011;2227;47.810;8.810;2023-05-02T17:46:32;962.10;;;887.97;;
4428;SDS011;2227;47.810;8.810;2023-05-02T17:48:58;965.60;;;891.10;;
4428;SDS011;2227;47.810;8.810;2023-05-02T17:51:26;964.10;;;890.20;;
4428;SDS011;2227;47.810;8.810;2023-05-02T17:53:53;968.53;;;894.72;;
4428;SDS011;2227;47.810;8.810;2023-05-02T17:56:19;972.75;;;898.97;;
4428;SDS011;2227;47.810;8.810;2023-05-02T17:58:46;984.08;;;909.83;;
4428;SDS011;2227;47.810;8.810;2023-05-02T18:01:13;984.22;;;910.03;;
4428;SDS011;2227;47.810;8.810;2023-05-02T18:03:40;988.17;;;913.87;;
4428;SDS011;2227;47.810;8.810;2023-05-02T18:06:07;990.53;;;916.10;;
4428;SDS011;2227;47.810;8.810;2023-05-02T18:08:34;984.80;;;910.70;;
4428;SDS011;2227;47.810;8.810;2023-05-02T18:11:01;981.53;;;907.50;;
4428;SDS011;2227;47.810;8.810;2023-05-02T18:13:28;986.20;;;911.87;;
4428;SDS011;2227;47.810;8.810;2023-05-02T18:15:56;987.35;;;912.78;;
4428;SDS011;2227;47.810;8.810;2023-05-02T18:18:23;991.60;;;917.05;;
4428;SDS011;2227;47.810;8.810;2023-05-02T18:20:50;992.40;;;917.63;;
4428;SDS011;2227;47.810;8.810;2023-05-02T18:23:17;991.60;;;916.87;;
4428;SDS011;2227;47.810;8.810;2023-05-02T18:25:44;988.63;;;914.00;;
4428;SDS011;2227;47.810;8.810;2023-05-02T18:28:10;988.75;;;914.00;;
4428;SDS011;2227;47.810;8.810;2023-05-02T18:30:38;984.47;;;909.77;;
4428;SDS011;2227;47.810;8.810;2023-05-02T18:33:05;983.25;;;908.55;;